Startpagina
METAR-TAF:

METAR-TAF

Vliegvelden :

Productieplatform

Awg-1, Nederland

breedte: 53-29-30N, lengte: 5-56-30E, hoogte: 33 m

Actueel weer

Dit bericht is 30 minuten geleden gemaakt, om 13:55 UTC
Wind 8 kt uit het zuidzuidwesten
Temperatuur 6°C
Vochtigheid 93%
Druk 1029 hPa
Zicht 10 km of meer
Weinig wolken op 400 ft
Gebroken wolken op 600 ft
Gebroken wolken op 700 ft

METAR: EHMA 231355Z AUTO 20008KT 9999 FEW004 BKN006 BKN007 06/05 Q1029

Tijdstip: 15:25 (14:25 UTC)


TAF: ontbreekt

Waarnemingen en weersverwachtingen van meer dan 4000 vliegvelden (METAR en TAF).

De beschikbare stations zijn de gele en rode punten op de kaart.

Ga met uw muis naar het station om de naam te zien.

Klik dan om waarnemingen en weersverwachtingen te zien.

kaart wijzigen: klik op de groene knoppen met een zwart kruis om in te zoomen, op de groene knop met een streepje om uit te zoomen of op de groene pijlen voor aangrenzende kaarten.


METAR-TAF: